createdAt,value
2023-03-17T00:00:23.956Z,9.90
2023-03-17T00:01:23.940Z,9.70
2023-03-17T00:02:23.952Z,10.50
2023-03-17T00:03:23.927Z,10.40
2023-03-17T00:04:23.902Z,11.40
2023-03-17T00:05:23.934Z,9.30
2023-03-17T00:06:23.873Z,8.90
2023-03-17T00:07:23.866Z,10.30
2023-03-17T00:08:23.847Z,9.70
2023-03-17T00:09:23.863Z,10.30
2023-03-17T00:10:23.825Z,11.50
2023-03-17T00:11:23.846Z,12.10
2023-03-17T00:12:23.820Z,14.40
2023-03-17T00:13:23.787Z,14.60
2023-03-17T00:14:23.789Z,15.50
2023-03-17T00:15:23.769Z,15.90
2023-03-17T00:16:23.806Z,12.10
2023-03-17T00:17:23.809Z,11.10
2023-03-17T00:18:23.715Z,10.10
2023-03-17T00:19:23.726Z,9.70
2023-03-17T00:20:23.723Z,10.40
2023-03-17T00:21:23.692Z,11.70
2023-03-17T00:22:23.684Z,11.40
2023-03-17T00:23:23.684Z,10.70
2023-03-17T00:24:23.689Z,13.10
2023-03-17T00:25:23.640Z,10.70
2023-03-17T00:26:23.681Z,10.50
2023-03-17T00:27:23.613Z,10.20
2023-03-17T00:28:23.600Z,10.60
2023-03-17T00:29:23.639Z,10.40
2023-03-17T00:30:23.600Z,10.00
2023-03-17T00:31:23.638Z,9.60
2023-03-17T00:32:23.545Z,10.40
2023-03-17T00:33:23.532Z,9.60
2023-03-17T00:34:23.549Z,8.90
2023-03-17T00:35:23.548Z,9.10
2023-03-17T00:36:23.504Z,8.90
2023-03-17T00:37:23.482Z,9.30
2023-03-17T00:38:23.478Z,9.10
2023-03-17T00:39:23.461Z,9.00
2023-03-17T00:40:23.460Z,9.50
2023-03-17T00:41:23.480Z,8.80
2023-03-17T00:42:23.418Z,9.90
2023-03-17T00:43:23.458Z,9.10
2023-03-17T00:44:23.402Z,8.20
2023-03-17T00:45:23.402Z,10.20
2023-03-17T00:46:23.412Z,9.70
2023-03-17T00:47:23.410Z,8.80
2023-03-17T00:48:23.352Z,10.70
2023-03-17T00:49:23.346Z,11.10
2023-03-17T00:50:23.353Z,9.00
2023-03-17T00:51:23.383Z,9.10
2023-03-17T00:52:23.290Z,10.70
2023-03-17T00:53:23.330Z,10.30
2023-03-17T00:54:23.282Z,9.30
2023-03-17T00:55:23.258Z,10.10
2023-03-17T00:56:23.240Z,10.50
2023-03-17T00:57:23.243Z,11.60
2023-03-17T00:58:23.220Z,9.60
2023-03-17T00:59:23.237Z,10.00
2023-03-17T01:00:23.197Z,9.70
2023-03-17T01:01:23.221Z,9.90
2023-03-17T01:02:23.236Z,9.80
2023-03-17T01:03:23.163Z,10.30
2023-03-17T01:04:23.149Z,9.00
2023-03-17T01:05:23.182Z,11.30
2023-03-17T01:06:23.115Z,10.30
2023-03-17T01:07:23.107Z,10.30
2023-03-17T01:08:23.114Z,10.90
2023-03-17T01:09:23.123Z,13.90
2023-03-17T01:10:23.076Z,20.20
2023-03-17T01:11:23.095Z,21.40
2023-03-17T01:12:23.055Z,20.30
2023-03-17T01:13:23.051Z,17.00
2023-03-17T01:14:23.042Z,15.70
2023-03-17T01:15:23.055Z,17.90
2023-03-17T01:16:23.057Z,15.40
2023-03-17T01:17:23.014Z,14.80
2023-03-17T01:18:23.133Z,13.00
2023-03-17T01:19:23.028Z,14.50
2023-03-17T01:20:22.981Z,13.40
2023-03-17T01:21:22.934Z,11.90
2023-03-17T01:22:22.924Z,10.30
2023-03-17T01:23:22.946Z,10.70
2023-03-17T01:24:22.890Z,10.40
2023-03-17T01:25:22.881Z,10.80
2023-03-17T01:26:25.727Z,11.10
2023-03-17T01:27:22.858Z,10.70
2023-03-17T01:28:22.851Z,10.80
2023-03-17T01:29:22.851Z,9.90
2023-03-17T01:30:22.826Z,10.90
2023-03-17T01:31:22.903Z,11.70
2023-03-17T01:32:22.829Z,11.40
2023-03-17T01:33:22.779Z,11.30
2023-03-17T01:34:22.768Z,10.30
2023-03-17T01:35:22.777Z,10.90
2023-03-17T01:36:22.741Z,12.00
2023-03-17T01:37:22.786Z,11.30
2023-03-17T01:38:22.736Z,11.10
2023-03-17T01:39:22.710Z,11.70
2023-03-17T01:40:22.709Z,11.90
2023-03-17T01:41:22.700Z,12.00
2023-03-17T01:42:22.669Z,13.00
2023-03-17T01:43:22.689Z,12.90
2023-03-17T01:44:22.646Z,12.10
2023-03-17T01:45:22.658Z,12.60
2023-03-17T01:46:22.658Z,11.80
2023-03-17T01:47:22.628Z,12.30
2023-03-17T01:48:22.586Z,12.60
2023-03-17T01:49:22.578Z,11.20
2023-03-17T01:50:22.652Z,11.80
2023-03-17T01:51:22.551Z,12.80
2023-03-17T01:52:22.537Z,13.10
2023-03-17T01:53:22.580Z,11.60
2023-03-17T01:54:22.552Z,11.90
2023-03-17T01:55:22.518Z,13.70
2023-03-17T01:56:22.487Z,12.30
2023-03-17T01:57:22.485Z,12.60
2023-03-17T01:58:22.464Z,11.90
2023-03-17T01:59:22.535Z,11.50
2023-03-17T02:00:22.458Z,10.40
2023-03-17T02:01:22.477Z,11.10
2023-03-17T02:02:22.432Z,11.80
2023-03-17T02:03:22.434Z,11.60
2023-03-17T02:04:22.462Z,12.10
2023-03-17T02:05:22.415Z,13.60
2023-03-17T02:06:22.388Z,12.10
2023-03-17T02:07:22.352Z,12.40
2023-03-17T02:08:22.341Z,10.70
2023-03-17T02:09:22.335Z,11.90
2023-03-17T02:10:22.319Z,11.10
2023-03-17T02:11:22.351Z,10.80
2023-03-17T02:12:22.293Z,11.20
2023-03-17T02:13:22.324Z,10.70
2023-03-17T02:14:22.286Z,11.30
2023-03-17T02:15:22.262Z,10.10
2023-03-17T02:16:22.290Z,10.00
2023-03-17T02:17:22.271Z,10.30
2023-03-17T02:18:22.224Z,11.10
2023-03-17T02:19:22.209Z,11.00
2023-03-17T02:20:22.188Z,11.10
2023-03-17T02:21:22.196Z,13.00
2023-03-17T02:22:22.184Z,10.40
2023-03-17T02:23:22.181Z,11.90
2023-03-17T02:24:22.134Z,12.20
2023-03-17T02:25:22.133Z,13.00
2023-03-17T02:26:22.137Z,11.70
2023-03-17T02:27:22.116Z,13.00
2023-03-17T02:28:22.090Z,13.10
2023-03-17T02:29:22.111Z,12.70
2023-03-17T02:30:22.095Z,11.60
2023-03-17T02:31:22.095Z,11.70
2023-03-17T02:32:22.056Z,12.10
2023-03-17T02:33:22.047Z,13.60
2023-03-17T02:34:22.042Z,13.40
2023-03-17T02:35:22.062Z,11.50
2023-03-17T02:36:22.183Z,12.70
2023-03-17T02:37:21.988Z,12.90
2023-03-17T02:38:21.979Z,11.50
2023-03-17T02:39:21.986Z,14.10
2023-03-17T02:40:21.951Z,13.00
2023-03-17T02:41:21.954Z,13.70
2023-03-17T02:42:21.929Z,11.70
2023-03-17T02:43:21.926Z,13.40
2023-03-17T02:44:21.921Z,12.80
2023-03-17T02:45:21.886Z,14.20
2023-03-17T02:46:21.960Z,15.00
2023-03-17T02:47:21.945Z,14.60
2023-03-17T02:48:21.847Z,14.60
2023-03-17T02:49:22.510Z,14.50
2023-03-17T02:50:21.831Z,14.60
2023-03-17T02:51:21.819Z,13.50
2023-03-17T02:52:21.792Z,14.60
2023-03-17T02:53:21.838Z,16.30
2023-03-17T02:54:21.785Z,14.90
2023-03-17T02:55:21.765Z,17.50
2023-03-17T02:56:21.745Z,14.10
2023-03-17T02:57:21.739Z,14.50
2023-03-17T02:58:21.716Z,14.30
2023-03-17T02:59:21.742Z,14.30
2023-03-17T03:00:21.772Z,15.40
2023-03-17T03:01:21.741Z,15.30
2023-03-17T03:02:21.768Z,13.50
2023-03-17T03:03:21.662Z,14.90
2023-03-17T03:04:21.648Z,15.30
2023-03-17T03:05:21.670Z,15.10
2023-03-17T03:06:21.617Z,13.50
2023-03-17T03:07:21.616Z,13.70
2023-03-17T03:08:21.597Z,14.60
2023-03-17T03:09:21.604Z,15.00
2023-03-17T03:10:21.594Z,14.70
2023-03-17T03:11:21.613Z,16.20
2023-03-17T03:12:21.561Z,14.30
2023-03-17T03:13:21.536Z,13.70
2023-03-17T03:14:21.579Z,15.60
2023-03-17T03:15:21.524Z,16.10
2023-03-17T03:16:21.523Z,17.20
2023-03-17T03:17:21.542Z,16.80
2023-03-17T03:18:21.475Z,14.80
2023-03-17T03:19:21.464Z,13.80
2023-03-17T03:20:21.459Z,16.70
2023-03-17T03:21:21.437Z,13.20
2023-03-17T03:22:21.422Z,15.70
2023-03-17T03:23:21.437Z,14.50
2023-03-17T03:24:21.410Z,16.70
2023-03-17T03:25:21.384Z,16.00
2023-03-17T03:26:21.375Z,16.50
2023-03-17T03:27:21.385Z,16.40
2023-03-17T03:28:21.357Z,14.80
2023-03-17T03:29:21.365Z,15.50
2023-03-17T03:30:21.313Z,18.30
2023-03-17T03:31:21.362Z,17.70
2023-03-17T03:32:21.314Z,17.50
2023-03-17T03:33:21.300Z,16.60
2023-03-17T03:34:21.274Z,18.50
2023-03-17T03:35:21.296Z,18.40
2023-03-17T03:36:21.244Z,18.00
2023-03-17T03:37:21.247Z,18.30
2023-03-17T03:38:21.222Z,19.80
2023-03-17T03:39:21.220Z,18.30
2023-03-17T03:40:21.210Z,19.40
2023-03-17T03:41:21.225Z,17.80
2023-03-17T03:42:21.173Z,17.70
2023-03-17T03:43:23.650Z,18.70
2023-03-17T03:44:21.155Z,20.70
2023-03-17T03:45:21.143Z,20.20
2023-03-17T03:46:21.162Z,22.50
2023-03-17T03:47:21.146Z,22.50
2023-03-17T03:48:21.112Z,21.10
2023-03-17T03:49:21.074Z,20.50
2023-03-17T03:50:21.070Z,20.90
2023-03-17T03:51:21.065Z,20.30
2023-03-17T03:52:21.050Z,20.50
2023-03-17T03:53:21.127Z,19.80
2023-03-17T03:54:21.050Z,20.00
2023-03-17T03:55:21.005Z,19.00
2023-03-17T03:56:20.999Z,19.50
2023-03-17T03:57:20.969Z,19.90
2023-03-17T03:58:20.998Z,21.00
2023-03-17T03:59:20.991Z,19.10
2023-03-17T04:00:20.936Z,21.70
2023-03-17T04:01:20.933Z,20.50
2023-03-17T04:02:21.002Z,20.00
2023-03-17T04:03:20.926Z,20.30
2023-03-17T04:04:20.915Z,19.80
2023-03-17T04:05:20.892Z,19.20
2023-03-17T04:06:20.862Z,20.30
2023-03-17T04:07:20.846Z,24.60
2023-03-17T04:08:20.851Z,20.20
2023-03-17T04:09:20.825Z,19.60
2023-03-17T04:10:20.817Z,20.00
2023-03-17T04:11:20.823Z,19.50
2023-03-17T04:12:20.788Z,20.30
2023-03-17T04:13:20.770Z,20.10
2023-03-17T04:14:20.765Z,21.30
2023-03-17T04:15:20.769Z,19.50
2023-03-17T04:16:20.781Z,20.30
2023-03-17T04:17:20.753Z,19.40
2023-03-17T04:18:20.712Z,20.60
2023-03-17T04:19:20.795Z,20.60
2023-03-17T04:20:20.703Z,20.70
2023-03-17T04:21:20.684Z,20.40
2023-03-17T04:22:20.657Z,19.80
2023-03-17T04:23:20.681Z,22.40
2023-03-17T04:24:20.645Z,20.10
2023-03-17T04:25:20.621Z,18.90
2023-03-17T04:26:20.609Z,21.60
2023-03-17T04:27:20.619Z,20.60
2023-03-17T04:28:20.587Z,20.60
2023-03-17T04:29:20.600Z,21.90
2023-03-17T04:30:20.590Z,23.30
2023-03-17T04:31:20.568Z,23.00
2023-03-17T04:32:20.544Z,22.20
2023-03-17T04:33:20.522Z,23.30
2023-03-17T04:34:20.505Z,21.10
2023-03-17T04:35:20.539Z,23.60
2023-03-17T04:36:20.480Z,22.40
2023-03-17T04:37:20.622Z,21.90
2023-03-17T04:38:20.469Z,21.10
2023-03-17T04:39:20.445Z,23.00
2023-03-17T04:40:20.434Z,22.70
2023-03-17T04:41:20.452Z,20.70
2023-03-17T04:42:20.418Z,21.10
2023-03-17T04:43:20.403Z,22.40
2023-03-17T04:44:20.386Z,22.20
2023-03-17T04:45:20.371Z,24.10
2023-03-17T04:46:20.360Z,22.40
2023-03-17T04:47:20.383Z,23.70
2023-03-17T04:48:20.344Z,21.30
2023-03-17T04:49:20.325Z,24.20
2023-03-17T04:50:20.305Z,23.00
2023-03-17T04:51:20.293Z,23.10
2023-03-17T04:52:20.291Z,23.70
2023-03-17T04:53:20.289Z,24.40
2023-03-17T04:54:20.261Z,22.80
2023-03-17T04:55:20.243Z,21.90
2023-03-17T04:56:20.257Z,21.40
2023-03-17T04:57:20.237Z,22.30
2023-03-17T04:58:30.357Z,21.60
2023-03-17T04:59:20.215Z,23.80
2023-03-17T05:00:20.175Z,24.10
2023-03-17T05:01:20.170Z,23.10
2023-03-17T05:02:20.245Z,22.90
2023-03-17T05:03:26.669Z,22.70
2023-03-17T05:04:31.219Z,25.00
2023-03-17T05:05:20.149Z,21.50
2023-03-17T05:06:20.109Z,22.00
2023-03-17T05:07:20.093Z,24.00
2023-03-17T05:08:20.103Z,24.60
2023-03-17T05:09:20.075Z,27.20
2023-03-17T05:10:20.058Z,28.20
2023-03-17T05:11:20.073Z,29.80
2023-03-17T05:12:20.023Z,27.80
2023-03-17T05:13:20.036Z,30.10
2023-03-17T05:14:20.032Z,26.70
2023-03-17T05:15:19.980Z,28.00
2023-03-17T05:16:19.994Z,29.20
2023-03-17T05:17:19.989Z,26.80
2023-03-17T05:18:19.985Z,31.20
2023-03-17T05:19:20.016Z,27.70
2023-03-17T05:20:19.941Z,28.80
2023-03-17T05:21:19.905Z,28.70
2023-03-17T05:22:19.918Z,30.70
2023-03-17T05:23:19.922Z,30.40
2023-03-17T05:24:19.866Z,29.50
2023-03-17T05:25:19.882Z,27.40
2023-03-17T05:26:19.843Z,32.90
2023-03-17T05:27:19.834Z,32.20
2023-03-17T05:28:19.829Z,29.10
2023-03-17T05:29:19.856Z,29.20
2023-03-17T05:30:19.820Z,28.90
2023-03-17T05:31:19.818Z,29.10
2023-03-17T05:32:19.788Z,33.00
2023-03-17T05:33:19.780Z,31.30
2023-03-17T05:34:19.749Z,32.50
2023-03-17T05:35:19.776Z,32.60
2023-03-17T05:36:19.717Z,31.90
2023-03-17T05:37:19.727Z,29.80
2023-03-17T05:38:19.700Z,30.00
2023-03-17T05:39:19.699Z,28.10
2023-03-17T05:40:20.449Z,27.70
2023-03-17T05:41:19.710Z,28.90
2023-03-17T05:42:19.650Z,29.70
2023-03-17T05:43:19.653Z,27.60
2023-03-17T05:44:19.631Z,27.70
2023-03-17T05:45:19.658Z,28.30
2023-03-17T05:46:20.562Z,28.10
2023-03-17T05:47:19.625Z,27.70
2023-03-17T05:48:19.580Z,28.60
2023-03-17T05:49:19.578Z,27.30
2023-03-17T05:50:19.608Z,26.60
2023-03-17T05:51:19.541Z,25.60
2023-03-17T05:52:19.529Z,29.70
2023-03-17T05:53:19.535Z,29.50
2023-03-17T05:54:19.499Z,28.10
2023-03-17T05:55:19.499Z,27.30
2023-03-17T05:56:19.472Z,27.20
2023-03-17T05:57:19.489Z,28.10
2023-03-17T05:58:19.446Z,28.90
2023-03-17T05:59:19.511Z,27.50
2023-03-17T06:00:19.456Z,26.40
2023-03-17T06:01:19.447Z,26.80
2023-03-17T06:02:19.452Z,27.80
2023-03-17T06:03:19.534Z,29.10
2023-03-17T06:04:19.380Z,28.10
2023-03-17T06:05:19.416Z,27.20
2023-03-17T06:06:19.359Z,27.60
2023-03-17T06:07:19.348Z,25.20
2023-03-17T06:08:19.331Z,26.50
2023-03-17T06:09:19.323Z,25.70
2023-03-17T06:10:19.332Z,28.60
2023-03-17T06:11:19.338Z,25.60
2023-03-17T06:12:19.279Z,32.00
2023-03-17T06:13:19.264Z,26.90
2023-03-17T06:14:19.257Z,25.70
2023-03-17T06:15:19.287Z,24.70
2023-03-17T06:16:19.300Z,26.00
2023-03-17T06:17:19.258Z,28.10
2023-03-17T06:18:19.209Z,47.70
2023-03-17T06:19:19.196Z,30.00
2023-03-17T06:20:19.255Z,27.30
2023-03-17T06:21:19.199Z,29.40
2023-03-17T06:22:19.200Z,29.30
2023-03-17T06:23:19.192Z,26.60
2023-03-17T06:24:19.132Z,24.50
2023-03-17T06:25:19.300Z,23.50
2023-03-17T06:26:19.118Z,25.90
2023-03-17T06:27:19.107Z,26.00
2023-03-17T06:28:19.080Z,22.30
2023-03-17T06:29:19.117Z,21.40
2023-03-17T06:30:19.103Z,21.10
2023-03-17T06:31:19.090Z,21.20
2023-03-17T06:32:20.962Z,20.20
2023-03-17T06:33:19.028Z,22.90
2023-03-17T06:34:19.044Z,25.10
2023-03-17T06:35:19.081Z,23.20
2023-03-17T06:36:18.989Z,19.40
2023-03-17T06:37:18.984Z,19.50
2023-03-17T06:38:18.951Z,17.90
2023-03-17T06:39:18.940Z,17.30
2023-03-17T06:40:18.953Z,20.80
2023-03-17T06:41:18.939Z,21.40
2023-03-17T06:42:18.906Z,43.40
2023-03-17T06:43:18.892Z,40.70
2023-03-17T06:44:18.887Z,30.50
2023-03-17T06:45:18.859Z,41.50
2023-03-17T06:46:18.890Z,34.40
2023-03-17T06:47:18.863Z,24.50
2023-03-17T06:48:18.832Z,21.80
2023-03-17T06:49:18.829Z,22.80
2023-03-17T06:50:18.823Z,26.50
2023-03-17T06:51:18.792Z,32.90
2023-03-17T06:52:18.784Z,39.10
2023-03-17T06:53:18.801Z,31.80
2023-03-17T06:54:18.746Z,30.60
2023-03-17T06:55:18.737Z,39.90
2023-03-17T06:56:29.527Z,55.30
2023-03-17T06:57:18.721Z,38.30
2023-03-17T06:58:18.713Z,32.80
2023-03-17T06:59:18.738Z,22.90
2023-03-17T07:00:18.677Z,17.00
2023-03-17T07:01:18.718Z,19.40
2023-03-17T07:02:18.662Z,20.80
2023-03-17T07:03:18.652Z,16.30
2023-03-17T07:04:18.662Z,14.70
2023-03-17T07:05:18.657Z,14.90
2023-03-17T07:06:18.629Z,15.40
2023-03-17T07:07:18.585Z,14.20
2023-03-17T07:08:18.572Z,14.80
2023-03-17T07:09:18.556Z,15.70
2023-03-17T07:10:18.569Z,14.10
2023-03-17T07:11:18.576Z,13.10
2023-03-17T07:12:18.533Z,14.30
2023-03-17T07:13:18.512Z,12.50
2023-03-17T07:14:18.490Z,13.00
2023-03-17T07:15:18.482Z,13.00
2023-03-17T07:16:18.522Z,13.60
2023-03-17T07:17:18.485Z,13.30
2023-03-17T07:18:18.447Z,11.50
2023-03-17T07:19:18.426Z,11.00
2023-03-17T07:20:18.461Z,10.50
2023-03-17T07:21:18.404Z,11.10
2023-03-17T07:22:18.411Z,11.30
2023-03-17T07:23:18.422Z,12.60
2023-03-17T07:24:18.375Z,9.90
2023-03-17T07:25:18.362Z,10.80
2023-03-17T07:26:18.359Z,13.90
2023-03-17T07:27:19.415Z,12.30
2023-03-17T07:28:18.320Z,11.20
2023-03-17T07:29:18.335Z,11.60
2023-03-17T07:30:18.319Z,10.90
2023-03-17T07:31:18.314Z,10.90
2023-03-17T07:32:18.312Z,10.00
2023-03-17T07:33:18.275Z,9.90
2023-03-17T07:34:18.261Z,9.20
2023-03-17T07:35:18.321Z,8.70
2023-03-17T07:36:18.214Z,10.30
2023-03-17T07:37:18.227Z,9.30
2023-03-17T07:38:18.188Z,10.80
2023-03-17T07:39:18.172Z,9.20
2023-03-17T07:40:18.189Z,9.90
2023-03-17T07:41:18.186Z,9.50
2023-03-17T07:42:18.174Z,9.90
2023-03-17T07:43:18.123Z,10.10
2023-03-17T07:44:18.108Z,10.00
2023-03-17T07:45:18.090Z,9.50
2023-03-17T07:46:18.138Z,9.90
2023-03-17T07:47:18.117Z,9.30
2023-03-17T07:48:18.073Z,11.30
2023-03-17T07:49:20.931Z,9.30
2023-03-17T07:50:18.031Z,10.60
2023-03-17T07:51:18.014Z,9.50
2023-03-17T07:52:18.062Z,9.60
2023-03-17T07:53:18.066Z,9.40
2023-03-17T07:54:18.018Z,10.90
2023-03-17T07:55:17.974Z,11.70
2023-03-17T07:56:17.964Z,9.20
2023-03-17T07:57:18.057Z,9.50
2023-03-17T07:58:17.975Z,9.10
2023-03-17T07:59:17.946Z,11.00
2023-03-17T08:00:17.913Z,9.30
2023-03-17T08:01:17.902Z,9.10
2023-03-17T08:02:18.257Z,9.50
2023-03-17T08:03:18.035Z,8.70
2023-03-17T08:04:17.878Z,9.30
2023-03-17T08:05:17.875Z,8.60
2023-03-17T08:06:17.847Z,8.80
2023-03-17T08:07:17.842Z,8.60
2023-03-17T08:08:17.871Z,8.00
2023-03-17T08:09:17.815Z,8.90
2023-03-17T08:10:17.779Z,8.60
2023-03-17T08:11:17.789Z,8.00
2023-03-17T08:12:17.748Z,7.60
2023-03-17T08:13:17.793Z,8.90
2023-03-17T08:14:17.727Z,10.20
2023-03-17T08:15:17.755Z,8.80
2023-03-17T08:16:17.795Z,9.20
2023-03-17T08:17:17.740Z,9.30
2023-03-17T08:18:17.699Z,8.70
2023-03-17T08:19:17.699Z,9.50
2023-03-17T08:20:17.653Z,8.50
2023-03-17T08:21:17.653Z,8.50
2023-03-17T08:22:17.632Z,9.00
2023-03-17T08:23:17.671Z,8.20
2023-03-17T08:24:17.618Z,8.20
2023-03-17T08:25:17.623Z,9.00
2023-03-17T08:26:17.576Z,9.00
2023-03-17T08:27:17.559Z,8.50
2023-03-17T08:28:17.644Z,8.60
2023-03-17T08:29:17.617Z,8.40
2023-03-17T08:30:17.537Z,9.00
2023-03-17T08:31:17.572Z,8.60
2023-03-17T08:32:17.508Z,7.80
2023-03-17T08:33:17.591Z,8.10
2023-03-17T08:34:17.490Z,8.20
2023-03-17T08:35:17.629Z,9.10
2023-03-17T08:36:17.472Z,10.10
2023-03-17T08:37:17.449Z,8.50
2023-03-17T08:38:17.463Z,8.60
2023-03-17T08:39:17.418Z,10.00
2023-03-17T08:40:17.424Z,9.00
2023-03-17T08:41:17.423Z,8.10
2023-03-17T08:42:17.392Z,9.00
2023-03-17T08:43:17.363Z,9.60
2023-03-17T08:44:17.361Z,8.60
2023-03-17T08:45:17.333Z,8.90
2023-03-17T08:46:17.357Z,9.60
2023-03-17T08:47:17.370Z,8.00
2023-03-17T08:48:17.330Z,10.10
2023-03-17T08:49:17.324Z,8.40
2023-03-17T08:50:17.276Z,9.20
2023-03-17T08:51:19.054Z,8.50
2023-03-17T08:52:17.253Z,8.50
2023-03-17T08:53:17.265Z,9.30
2023-03-17T08:54:17.227Z,8.60
2023-03-17T08:55:17.238Z,8.60
2023-03-17T08:56:17.192Z,9.40
2023-03-17T08:57:17.242Z,8.60
2023-03-17T08:58:17.200Z,9.10
2023-03-17T08:59:17.185Z,8.30
2023-03-17T09:00:17.159Z,8.40
2023-03-17T09:01:17.174Z,9.90
2023-03-17T09:02:17.186Z,9.50
2023-03-17T09:03:17.125Z,8.40
2023-03-17T09:04:17.131Z,8.70
2023-03-17T09:05:17.124Z,8.30
2023-03-17T09:06:17.077Z,8.00
2023-03-17T09:07:17.065Z,9.40
2023-03-17T09:08:17.104Z,7.90
2023-03-17T09:09:17.068Z,8.50
2023-03-17T09:10:17.130Z,8.70
2023-03-17T09:11:17.040Z,9.50
2023-03-17T09:12:17.008Z,9.60
2023-03-17T09:13:17.021Z,8.40
2023-03-17T09:14:17.007Z,9.50
2023-03-17T09:15:16.984Z,7.90
2023-03-17T09:16:17.034Z,9.20
2023-03-17T09:17:16.969Z,8.60
2023-03-17T09:18:16.946Z,8.60
2023-03-17T09:19:16.933Z,8.50
2023-03-17T09:20:16.937Z,8.60
2023-03-17T09:21:16.899Z,7.60
2023-03-17T09:22:16.885Z,8.10
2023-03-17T09:23:16.910Z,9.80
2023-03-17T09:24:16.898Z,8.30
2023-03-17T09:25:16.916Z,8.70
2023-03-17T09:26:16.829Z,8.20
2023-03-17T09:27:16.864Z,8.20
2023-03-17T09:28:16.878Z,10.80
2023-03-17T09:29:16.840Z,10.90
2023-03-17T09:30:16.814Z,9.90
2023-03-17T09:31:16.889Z,8.40
2023-03-17T09:32:16.783Z,9.00
2023-03-17T09:33:16.759Z,8.80
2023-03-17T09:34:16.748Z,8.60
2023-03-17T09:35:16.758Z,10.30
2023-03-17T09:36:16.719Z,10.00
2023-03-17T09:37:16.728Z,8.20
2023-03-17T09:38:16.690Z,8.90
2023-03-17T09:39:16.684Z,9.50
2023-03-17T09:40:16.664Z,10.50
2023-03-17T09:41:16.670Z,9.80
2023-03-17T09:42:16.696Z,8.40
2023-03-17T09:43:16.624Z,9.20
2023-03-17T09:44:16.624Z,9.50
2023-03-17T09:45:16.614Z,8.50
2023-03-17T09:46:16.599Z,8.60
2023-03-17T09:47:16.603Z,8.80
2023-03-17T09:48:16.594Z,9.40
2023-03-17T09:49:16.593Z,9.90
2023-03-17T09:50:16.560Z,11.20
2023-03-17T09:51:16.527Z,9.40
2023-03-17T09:52:16.520Z,8.60
2023-03-17T09:53:16.698Z,9.10
2023-03-17T09:54:16.562Z,8.00
2023-03-17T09:55:16.481Z,10.40
2023-03-17T09:56:16.476Z,9.80
2023-03-17T09:57:16.450Z,9.10
2023-03-17T09:58:16.444Z,8.60
2023-03-17T09:59:16.452Z,9.70
2023-03-17T10:00:16.432Z,9.90
2023-03-17T10:01:16.395Z,10.00
2023-03-17T10:02:16.410Z,10.30
2023-03-17T10:03:16.381Z,9.70
2023-03-17T10:04:18.745Z,9.70
2023-03-17T10:05:16.470Z,9.80
2023-03-17T10:06:16.372Z,9.00
2023-03-17T10:07:16.363Z,9.60
2023-03-17T10:08:30.003Z,10.00
2023-03-17T10:09:16.347Z,9.20
2023-03-17T10:10:16.328Z,11.60
2023-03-17T10:11:16.376Z,8.90
2023-03-17T10:12:16.263Z,10.50
2023-03-17T10:13:16.261Z,9.80
2023-03-17T10:14:16.271Z,9.00
2023-03-17T10:15:16.275Z,9.30
2023-03-17T10:16:16.273Z,9.40
2023-03-17T10:17:16.244Z,10.80
2023-03-17T10:18:16.229Z,9.80
2023-03-17T10:19:16.243Z,10.00
2023-03-17T10:20:16.180Z,10.30
2023-03-17T10:21:16.175Z,9.90
2023-03-17T10:22:16.146Z,10.50
2023-03-17T10:23:16.170Z,9.90
2023-03-17T10:24:16.170Z,9.60
2023-03-17T10:25:16.149Z,9.30
2023-03-17T10:26:16.186Z,8.90
2023-03-17T10:27:16.116Z,8.60
2023-03-17T10:28:16.105Z,9.30
2023-03-17T10:29:16.140Z,9.50
2023-03-17T10:30:16.094Z,9.80
2023-03-17T10:31:16.095Z,9.80
2023-03-17T10:32:16.043Z,10.20
2023-03-17T10:33:16.043Z,9.50
2023-03-17T10:34:16.020Z,11.60
2023-03-17T10:35:16.044Z,10.20
2023-03-17T10:36:16.020Z,10.10
2023-03-17T10:37:15.963Z,9.20
2023-03-17T10:38:15.955Z,10.30
2023-03-17T10:39:15.969Z,10.60
2023-03-17T10:40:17.605Z,10.60
2023-03-17T10:41:15.961Z,12.90
2023-03-17T10:42:15.902Z,13.00
2023-03-17T10:43:15.898Z,13.50
2023-03-17T10:44:15.906Z,14.10
2023-03-17T10:45:15.882Z,11.30
2023-03-17T10:46:15.878Z,13.60
2023-03-17T10:47:15.976Z,13.30
2023-03-17T10:48:15.860Z,12.10
2023-03-17T10:49:15.848Z,13.10
2023-03-17T10:50:15.824Z,12.10
2023-03-17T10:51:15.805Z,12.00
2023-03-17T10:52:15.812Z,10.40
2023-03-17T10:53:15.806Z,10.00
2023-03-17T10:54:15.790Z,10.30
2023-03-17T10:55:15.751Z,10.80
2023-03-17T10:56:15.744Z,10.40
2023-03-17T10:57:15.747Z,10.40
2023-03-17T10:58:15.736Z,9.60
2023-03-17T10:59:15.756Z,9.70
2023-03-17T11:00:15.722Z,10.40
2023-03-17T11:01:15.700Z,10.90
2023-03-17T11:02:15.666Z,10.70
2023-03-17T11:03:15.668Z,9.90
2023-03-17T11:04:15.768Z,9.90
2023-03-17T11:05:15.676Z,9.10
2023-03-17T11:06:15.629Z,9.00
2023-03-17T11:07:15.616Z,9.40
2023-03-17T11:08:15.592Z,10.10
2023-03-17T11:09:15.597Z,9.30
2023-03-17T11:10:15.570Z,9.70
2023-03-17T11:11:15.601Z,9.90
2023-03-17T11:12:15.559Z,10.90
2023-03-17T11:13:15.559Z,10.70
2023-03-17T11:14:15.554Z,10.60
2023-03-17T11:15:15.546Z,12.20
2023-03-17T11:16:15.608Z,9.70
2023-03-17T11:17:15.548Z,9.10
2023-03-17T11:18:15.484Z,9.60
2023-03-17T11:19:15.496Z,9.10
2023-03-17T11:20:15.455Z,9.90
2023-03-17T11:21:15.488Z,10.40
2023-03-17T11:22:15.465Z,9.30
2023-03-17T11:23:15.448Z,9.00
2023-03-17T11:24:15.417Z,9.60
2023-03-17T11:25:15.431Z,10.20
2023-03-17T11:26:15.388Z,11.20
2023-03-17T11:27:15.374Z,9.40
2023-03-17T11:28:15.352Z,10.20
2023-03-17T11:29:15.374Z,9.60
2023-03-17T11:30:15.337Z,10.60
2023-03-17T11:31:15.479Z,9.90
2023-03-17T11:32:15.329Z,10.50
2023-03-17T11:33:15.299Z,9.90
2023-03-17T11:34:15.313Z,11.60
2023-03-17T11:35:15.321Z,9.30
2023-03-17T11:36:15.275Z,10.10
2023-03-17T11:37:15.255Z,10.20
2023-03-17T11:38:15.238Z,10.40
2023-03-17T11:39:15.236Z,10.00
2023-03-17T11:40:15.221Z,8.80
2023-03-17T11:41:15.244Z,10.90
2023-03-17T11:42:15.206Z,9.90
2023-03-17T11:43:15.194Z,10.40
2023-03-17T11:44:15.177Z,11.30
2023-03-17T11:45:15.191Z,11.80
2023-03-17T11:46:15.166Z,10.10
2023-03-17T11:47:15.167Z,10.90
2023-03-17T11:48:15.129Z,10.60
2023-03-17T11:49:15.113Z,10.90
2023-03-17T11:50:15.111Z,10.30
2023-03-17T11:51:15.228Z,10.50
2023-03-17T11:52:15.112Z,11.80
2023-03-17T11:53:15.097Z,10.90
2023-03-17T11:54:15.050Z,10.10
2023-03-17T11:55:15.058Z,9.90
2023-03-17T11:56:15.019Z,9.60
2023-03-17T11:57:15.029Z,9.90
2023-03-17T11:58:15.042Z,9.20
2023-03-17T11:59:15.026Z,9.40
2023-03-17T12:00:14.968Z,10.50
2023-03-17T12:01:14.966Z,10.70
2023-03-17T12:02:14.958Z,10.60
2023-03-17T12:03:15.042Z,9.10
2023-03-17T12:04:14.941Z,8.90
2023-03-17T12:05:14.955Z,10.30
2023-03-17T12:06:14.900Z,10.90
2023-03-17T12:07:14.892Z,11.30
2023-03-17T12:08:14.893Z,11.70
2023-03-17T12:09:14.864Z,10.50
2023-03-17T12:10:14.919Z,11.00
2023-03-17T12:11:14.905Z,9.50
2023-03-17T12:12:16.276Z,11.30
2023-03-17T12:13:14.805Z,10.30
2023-03-17T12:14:14.796Z,11.10
2023-03-17T12:15:14.792Z,9.40
2023-03-17T12:16:14.794Z,10.80
2023-03-17T12:17:14.812Z,10.30
2023-03-17T12:18:14.775Z,9.30
2023-03-17T12:19:14.757Z,10.20
2023-03-17T12:20:14.867Z,10.00
2023-03-17T12:21:14.719Z,8.80
2023-03-17T12:22:14.714Z,10.00
2023-03-17T12:23:14.736Z,9.60
2023-03-17T12:24:14.695Z,9.00
2023-03-17T12:25:14.671Z,10.00
2023-03-17T12:26:14.648Z,9.30
2023-03-17T12:27:14.650Z,10.00
2023-03-17T12:28:14.650Z,8.70
2023-03-17T12:29:14.651Z,10.00
2023-03-17T12:30:14.724Z,9.40
2023-03-17T12:31:14.647Z,9.30
2023-03-17T12:32:14.586Z,10.00
2023-03-17T12:33:14.559Z,11.30
2023-03-17T12:34:14.564Z,10.70
2023-03-17T12:35:14.583Z,10.20
2023-03-17T12:36:14.568Z,10.60
2023-03-17T12:37:14.515Z,10.10
2023-03-17T12:38:14.537Z,9.40
2023-03-17T12:39:14.492Z,10.70
2023-03-17T12:40:14.530Z,10.00
2023-03-17T12:41:14.500Z,10.60
2023-03-17T12:42:14.473Z,10.40
2023-03-17T12:43:14.436Z,10.50
2023-03-17T12:44:14.480Z,12.20
2023-03-17T12:45:14.420Z,11.00
2023-03-17T12:46:14.494Z,11.40
2023-03-17T12:47:14.446Z,12.40
2023-03-17T12:48:14.386Z,10.70
2023-03-17T12:49:14.402Z,10.70
2023-03-17T12:50:14.358Z,12.80
2023-03-17T12:51:14.352Z,11.90
2023-03-17T12:52:14.389Z,11.20
2023-03-17T12:53:14.367Z,11.20
2023-03-17T12:54:14.314Z,10.70
2023-03-17T12:55:14.299Z,12.80
2023-03-17T12:56:14.296Z,10.50
2023-03-17T12:57:14.285Z,12.30
2023-03-17T12:58:14.246Z,11.40
2023-03-17T12:59:14.290Z,12.00